Alice Springs Airport
YBAS : rendu visible

Aérodrome :











RETROUVEZ-NOUS SUR...

 
LOGIN :

S'inscrire | Disclaimer

   EN    FR    IT 

 









Légende :    VFR   VFR Marginal   IFR   IFR Intensif   IFR Très Intensif
Visi : 
Plafond : 
>= 8 km
>= 3000ft
5 à 8 km
1000 à 3000 ft
1500m à 5 km
500 à 1000 ft
800 à 1500m
200 à 500 ft
< 800m
< 200 ft
Symboles :   Orages  Brouillard  Fortes neiges  Fortes précipitations  Vent > 20 kt






- Altitude de l'aérodrome : 1789 ft
- Code IATA : ASP


YBAS - Alice Springs

DERNIER METAR :
  • 070400Z AUTO 12011KT 090V150 9999 // NCD 17/M00 Q1021

METARs EXPIRÉS :
  • 070330Z AUTO 11009KT 9999 // NCD 17/M01 Q1022 RF00.0/000.0
  • 070300Z AUTO 11010KT 9999 // NCD 15/M01 Q1022
  • 070230Z AUTO 11010KT 9999 // NCD 16/00 Q1023 RF00.0/000.0
  • 070200Z AUTO 12012KT 9999 // NCD 15/00 Q1023
  • 070130Z AUTO 13012KT 9999 // NCD 14/00 Q1024 RF00.0/000.0
  • 070100Z AUTO 11009KT 9999 // NCD 14/01 Q1024

TAF TAF YBAS
Valide du 07 à 00h jusqu'au 08 à 00h UTC


062312Z 0700/0800 12014KT CAVOK
FM070200 11010KT CAVOK
FM071600 30005KT CAVOK
FIR YMMM / Océanie



MET'MAP, la Météo Aéronautique d'un coup d'oeil ! - Copyright ORBIFLY Décembre 2007 - Disclaimer

ORBIFLY MET'MAP TEAM :

Programmation & Développement : Alexandra Zaïnal
Sur une idée originale de : Baudouin d'Aumeries
Assistance à la programmation : Marc-Olivier Méhu
Soutien technique & logistique : Manuel Goepfert

Contact : metmap@orbifly.com




SOURCES & CREDITS :

   NOAA       Earth
Advisory